createdAt,value
2023-04-19T00:00:00.389Z,19.80
2023-04-19T00:01:00.317Z,17.60
2023-04-19T00:02:00.339Z,18.80
2023-04-19T00:03:00.458Z,18.60
2023-04-19T00:04:00.391Z,18.90
2023-04-19T00:05:00.328Z,17.80
2023-04-19T00:06:00.302Z,18.80
2023-04-19T00:07:00.225Z,19.30
2023-04-19T00:08:00.231Z,17.10
2023-04-19T00:09:00.199Z,17.10
2023-04-19T00:10:00.214Z,17.60
2023-04-19T00:11:00.212Z,17.40
2023-04-19T00:12:00.198Z,18.40
2023-04-19T00:13:00.160Z,17.90
2023-04-19T00:14:00.160Z,18.30
2023-04-19T00:15:00.176Z,19.20
2023-04-19T00:16:00.146Z,16.90
2023-04-19T00:17:00.179Z,16.80
2023-04-19T00:18:00.199Z,16.90
2023-04-19T00:19:00.117Z,20.30
2023-04-19T00:20:00.115Z,18.30
2023-04-19T00:21:00.105Z,19.60
2023-04-19T00:22:00.070Z,19.20
2023-04-19T00:23:00.096Z,20.10
2023-04-19T00:24:00.059Z,17.90
2023-04-19T00:25:00.131Z,17.80
2023-04-19T00:26:00.051Z,17.10
2023-04-19T00:27:00.031Z,17.30
2023-04-19T00:27:59.991Z,17.90
2023-04-19T00:29:00.014Z,18.50
2023-04-19T00:29:59.967Z,18.10
2023-04-19T00:31:00.007Z,17.20
2023-04-19T00:32:00.028Z,18.10
2023-04-19T00:33:00.040Z,18.70
2023-04-19T00:33:59.965Z,17.90
2023-04-19T00:35:00.009Z,16.50
2023-04-19T00:35:59.931Z,18.90
2023-04-19T00:36:59.954Z,18.40
2023-04-19T00:37:59.935Z,16.00
2023-04-19T00:38:59.898Z,16.40
2023-04-19T00:39:59.908Z,18.70
2023-04-19T00:40:59.874Z,16.30
2023-04-19T00:41:59.849Z,16.90
2023-04-19T00:42:59.868Z,17.40
2023-04-19T00:43:59.853Z,17.50
2023-04-19T00:44:59.836Z,17.00
2023-04-19T00:45:59.860Z,18.20
2023-04-19T00:46:59.833Z,19.20
2023-04-19T00:47:59.835Z,19.40
2023-04-19T00:48:59.817Z,15.60
2023-04-19T00:49:59.787Z,16.90
2023-04-19T00:50:59.761Z,17.00
2023-04-19T00:51:59.823Z,16.10
2023-04-19T00:52:59.767Z,15.70
2023-04-19T00:53:59.723Z,16.30
2023-04-19T00:54:59.736Z,15.80
2023-04-19T00:55:59.724Z,15.00
2023-04-19T00:56:59.752Z,15.50
2023-04-19T00:57:59.662Z,17.10
2023-04-19T00:58:59.677Z,15.40
2023-04-19T00:59:59.670Z,15.00
2023-04-19T01:00:59.775Z,17.00
2023-04-19T01:01:59.697Z,17.30
2023-04-19T01:02:59.782Z,14.40
2023-04-19T01:03:59.679Z,14.20
2023-04-19T01:04:59.622Z,16.80
2023-04-19T01:05:59.682Z,17.00
2023-04-19T01:06:59.605Z,13.70
2023-04-19T01:07:59.574Z,16.40
2023-04-19T01:08:59.588Z,14.70
2023-04-19T01:09:59.553Z,15.30
2023-04-19T01:10:59.601Z,16.40
2023-04-19T01:11:59.547Z,12.90
2023-04-19T01:12:59.521Z,14.00
2023-04-19T01:13:59.512Z,14.40
2023-04-19T01:14:59.557Z,14.30
2023-04-19T01:15:59.562Z,13.90
2023-04-19T01:17:00.394Z,16.30
2023-04-19T01:17:59.592Z,14.00
2023-04-19T01:18:59.471Z,13.60
2023-04-19T01:19:59.436Z,13.90
2023-04-19T01:20:59.452Z,13.20
2023-04-19T01:21:59.430Z,13.90
2023-04-19T01:22:59.462Z,13.20
2023-04-19T01:23:59.439Z,13.20
2023-04-19T01:24:59.444Z,15.60
2023-04-19T01:25:59.400Z,15.40
2023-04-19T01:26:59.388Z,13.10
2023-04-19T01:27:59.371Z,14.50
2023-04-19T01:28:59.359Z,13.20
2023-04-19T01:29:59.351Z,13.00
2023-04-19T01:30:59.408Z,12.60
2023-04-19T01:31:59.314Z,14.30
2023-04-19T01:32:59.449Z,11.40
2023-04-19T01:33:59.302Z,12.90
2023-04-19T01:34:59.321Z,13.40
2023-04-19T01:35:59.268Z,12.60
2023-04-19T01:36:59.324Z,14.20
2023-04-19T01:37:59.256Z,12.10
2023-04-19T01:38:59.254Z,12.30
2023-04-19T01:39:59.222Z,12.00
2023-04-19T01:40:59.259Z,12.80
2023-04-19T01:41:59.251Z,10.60
2023-04-19T01:42:59.216Z,12.00
2023-04-19T01:43:59.214Z,12.70
2023-04-19T01:44:59.197Z,12.30
2023-04-19T01:45:59.198Z,10.90
2023-04-19T01:46:59.218Z,10.80
2023-04-19T01:47:59.207Z,11.80
2023-04-19T01:48:59.208Z,12.00
2023-04-19T01:49:59.157Z,10.60
2023-04-19T01:50:59.152Z,10.90
2023-04-19T01:51:59.161Z,10.20
2023-04-19T01:52:59.137Z,11.70
2023-04-19T01:53:59.100Z,13.40
2023-04-19T01:54:59.090Z,11.90
2023-04-19T01:55:59.070Z,10.60
2023-04-19T01:56:59.091Z,13.00
2023-04-19T01:57:59.053Z,12.30
2023-04-19T01:58:59.050Z,13.70
2023-04-19T01:59:59.104Z,11.80
2023-04-19T02:00:59.024Z,11.10
2023-04-19T02:01:59.084Z,11.80
2023-04-19T02:02:59.219Z,10.80
2023-04-19T02:03:59.233Z,11.90
2023-04-19T02:04:59.014Z,12.20
2023-04-19T02:05:58.960Z,10.50
2023-04-19T02:06:58.977Z,11.60
2023-04-19T02:07:59.016Z,10.30
2023-04-19T02:08:58.995Z,11.20
2023-04-19T02:09:58.925Z,11.00
2023-04-19T02:10:59.004Z,11.40
2023-04-19T02:11:58.903Z,9.30
2023-04-19T02:12:58.928Z,10.40
2023-04-19T02:13:58.896Z,11.60
2023-04-19T02:14:58.887Z,11.50
2023-04-19T02:15:58.915Z,11.50
2023-04-19T02:16:58.952Z,10.60
2023-04-19T02:17:58.921Z,12.40
2023-04-19T02:18:58.858Z,9.10
2023-04-19T02:19:58.859Z,10.90
2023-04-19T02:20:58.817Z,10.90
2023-04-19T02:21:58.793Z,10.10
2023-04-19T02:22:58.840Z,11.10
2023-04-19T02:23:58.774Z,10.60
2023-04-19T02:24:58.779Z,9.50
2023-04-19T02:25:58.763Z,10.60
2023-04-19T02:26:58.775Z,10.10
2023-04-19T02:27:58.760Z,11.30
2023-04-19T02:28:58.730Z,11.00
2023-04-19T02:29:58.752Z,11.10
2023-04-19T02:30:58.744Z,9.80
2023-04-19T02:31:58.779Z,10.80
2023-04-19T02:32:58.817Z,9.50
2023-04-19T02:33:58.665Z,11.30
2023-04-19T02:34:58.745Z,13.60
2023-04-19T02:35:58.670Z,10.50
2023-04-19T02:36:58.692Z,11.50
2023-04-19T02:37:58.656Z,9.60
2023-04-19T02:38:58.640Z,12.70
2023-04-19T02:39:58.612Z,10.70
2023-04-19T02:40:58.643Z,11.10
2023-04-19T02:41:58.638Z,10.50
2023-04-19T02:42:58.593Z,10.30
2023-04-19T02:43:58.564Z,11.50
2023-04-19T02:44:58.554Z,11.50
2023-04-19T02:45:58.600Z,10.50
2023-04-19T02:46:58.557Z,8.70
2023-04-19T02:47:58.607Z,9.10
2023-04-19T02:48:58.546Z,9.50
2023-04-19T02:49:58.495Z,11.80
2023-04-19T02:50:58.528Z,9.90
2023-04-19T02:51:58.500Z,9.60
2023-04-19T02:52:58.496Z,10.40
2023-04-19T02:53:58.449Z,9.60
2023-04-19T02:54:58.493Z,11.20
2023-04-19T02:55:58.490Z,10.10
2023-04-19T02:56:58.450Z,9.70
2023-04-19T02:57:58.441Z,9.00
2023-04-19T02:58:58.441Z,9.80
2023-04-19T02:59:58.442Z,11.10
2023-04-19T03:00:58.934Z,9.90
2023-04-19T03:01:58.395Z,9.50
2023-04-19T03:02:58.479Z,10.00
2023-04-19T03:03:58.446Z,9.60
2023-04-19T03:04:58.394Z,11.60
2023-04-19T03:05:58.361Z,9.60
2023-04-19T03:06:58.322Z,10.50
2023-04-19T03:07:58.318Z,10.20
2023-04-19T03:08:58.340Z,8.70
2023-04-19T03:09:58.349Z,9.70
2023-04-19T03:10:58.310Z,10.40
2023-04-19T03:11:58.268Z,9.60
2023-04-19T03:12:58.273Z,11.20
2023-04-19T03:13:58.274Z,11.20
2023-04-19T03:14:58.336Z,11.20
2023-04-19T03:15:58.241Z,8.80
2023-04-19T03:16:58.284Z,11.00
2023-04-19T03:17:58.224Z,8.90
2023-04-19T03:18:58.226Z,8.10
2023-04-19T03:19:58.223Z,11.30
2023-04-19T03:20:58.214Z,12.00
2023-04-19T03:21:58.157Z,9.40
2023-04-19T03:22:58.185Z,10.10
2023-04-19T03:23:58.173Z,10.50
2023-04-19T03:24:58.154Z,9.90
2023-04-19T03:25:58.115Z,10.30
2023-04-19T03:26:58.165Z,9.90
2023-04-19T03:27:58.135Z,12.60
2023-04-19T03:28:58.146Z,9.80
2023-04-19T03:29:58.095Z,9.10
2023-04-19T03:30:58.102Z,9.10
2023-04-19T03:31:58.092Z,10.10
2023-04-19T03:32:58.130Z,10.50
2023-04-19T03:33:58.061Z,9.30
2023-04-19T03:34:58.046Z,10.40
2023-04-19T03:35:58.029Z,11.00
2023-04-19T03:36:58.039Z,9.10
2023-04-19T03:37:58.014Z,11.00
2023-04-19T03:38:57.982Z,11.70
2023-04-19T03:39:57.981Z,10.10
2023-04-19T03:40:57.965Z,10.10
2023-04-19T03:41:57.977Z,11.70
2023-04-19T03:42:57.983Z,9.40
2023-04-19T03:43:58.005Z,10.70
2023-04-19T03:44:57.965Z,10.20
2023-04-19T03:45:57.983Z,12.30
2023-04-19T03:46:57.919Z,9.70
2023-04-19T03:47:58.247Z,9.50
2023-04-19T03:48:57.896Z,11.00
2023-04-19T03:49:57.851Z,12.40
2023-04-19T03:50:57.819Z,10.80
2023-04-19T03:51:57.892Z,10.70
2023-04-19T03:52:57.838Z,10.60
2023-04-19T03:53:57.813Z,11.00
2023-04-19T03:54:57.775Z,11.60
2023-04-19T03:55:57.771Z,15.70
2023-04-19T03:56:57.792Z,9.80
2023-04-19T03:57:57.726Z,11.50
2023-04-19T03:58:57.757Z,12.10
2023-04-19T03:59:57.734Z,10.10
2023-04-19T04:00:57.696Z,11.60
2023-04-19T04:01:57.838Z,11.20
2023-04-19T04:02:57.851Z,12.30
2023-04-19T04:03:57.911Z,12.80
2023-04-19T04:04:57.727Z,12.00
2023-04-19T04:05:57.673Z,10.80
2023-04-19T04:06:57.658Z,10.40
2023-04-19T04:07:57.652Z,12.00
2023-04-19T04:08:57.625Z,11.20
2023-04-19T04:09:57.597Z,11.30
2023-04-19T04:10:57.599Z,12.70
2023-04-19T04:11:57.605Z,12.20
2023-04-19T04:12:57.588Z,12.60
2023-04-19T04:13:57.542Z,11.40
2023-04-19T04:14:57.617Z,13.10
2023-04-19T04:15:57.592Z,12.40
2023-04-19T04:16:57.542Z,10.90
2023-04-19T04:17:57.547Z,12.70
2023-04-19T04:18:57.526Z,10.80
2023-04-19T04:19:57.513Z,10.00
2023-04-19T04:20:57.473Z,11.80
2023-04-19T04:21:57.485Z,10.40
2023-04-19T04:22:57.472Z,12.70
2023-04-19T04:24:04.520Z,10.10
2023-04-19T04:24:58.531Z,13.60
2023-04-19T04:26:05.406Z,13.00
2023-04-19T04:26:57.443Z,9.80
2023-04-19T04:27:57.435Z,12.10
2023-04-19T04:28:57.438Z,10.90
2023-04-19T04:29:57.406Z,13.60
2023-04-19T04:30:57.421Z,11.00
2023-04-19T04:31:57.400Z,10.60
2023-04-19T04:32:57.440Z,11.30
2023-04-19T04:33:57.350Z,12.40
2023-04-19T04:34:57.376Z,13.80
2023-04-19T04:35:57.392Z,11.60
2023-04-19T04:36:58.277Z,13.30
2023-04-19T04:37:57.359Z,11.70
2023-04-19T04:38:57.308Z,12.30
2023-04-19T04:39:57.328Z,11.50
2023-04-19T04:40:57.302Z,9.40
2023-04-19T04:41:57.299Z,10.40
2023-04-19T04:42:57.277Z,11.20
2023-04-19T04:44:11.527Z,13.50
2023-04-19T04:44:57.275Z,10.40
2023-04-19T04:45:57.316Z,12.90
2023-04-19T04:46:57.243Z,13.70
2023-04-19T04:47:57.252Z,12.20
2023-04-19T04:48:57.252Z,10.30
2023-04-19T04:49:57.248Z,11.50
2023-04-19T04:50:57.194Z,10.30
2023-04-19T04:51:57.193Z,12.90
2023-04-19T04:52:57.178Z,9.90
2023-04-19T04:53:57.183Z,13.10
2023-04-19T04:54:57.154Z,8.20
2023-04-19T04:55:57.157Z,12.10
2023-04-19T04:56:57.146Z,9.50
2023-04-19T04:57:57.169Z,10.60
2023-04-19T04:58:57.126Z,8.80
2023-04-19T04:59:57.121Z,11.20
2023-04-19T05:00:57.151Z,9.20
2023-04-19T05:01:57.172Z,9.40
2023-04-19T05:02:57.155Z,9.50
2023-04-19T05:03:57.161Z,9.90
2023-04-19T05:04:57.057Z,11.30
2023-04-19T05:05:57.082Z,9.60
2023-04-19T05:06:57.019Z,8.60
2023-04-19T05:07:57.128Z,11.50
2023-04-19T05:08:57.001Z,12.00
2023-04-19T05:09:56.999Z,8.80
2023-04-19T05:10:56.990Z,9.50
2023-04-19T05:11:57.009Z,9.60
2023-04-19T05:12:56.987Z,11.20
2023-04-19T05:13:57.060Z,9.10
2023-04-19T05:14:56.938Z,9.60
2023-04-19T05:15:56.998Z,6.60
2023-04-19T05:16:56.915Z,10.60
2023-04-19T05:17:56.969Z,8.60
2023-04-19T05:18:56.920Z,10.60
2023-04-19T05:19:56.905Z,8.30
2023-04-19T05:20:56.866Z,8.50
2023-04-19T05:21:56.953Z,8.90
2023-04-19T05:22:56.886Z,9.70
2023-04-19T05:23:56.886Z,10.40
2023-04-19T05:24:56.840Z,9.00
2023-04-19T05:25:56.810Z,9.70
2023-04-19T05:26:56.841Z,9.50
2023-04-19T05:27:56.843Z,9.20
2023-04-19T05:28:56.855Z,8.60
2023-04-19T05:29:56.851Z,11.60
2023-04-19T05:30:56.807Z,10.50
2023-04-19T05:31:56.774Z,9.00
2023-04-19T05:32:56.814Z,8.50
2023-04-19T05:33:56.750Z,8.60
2023-04-19T05:34:56.724Z,9.20
2023-04-19T05:35:56.740Z,10.00
2023-04-19T05:36:56.733Z,9.50
2023-04-19T05:37:56.722Z,9.40
2023-04-19T05:38:56.738Z,8.20
2023-04-19T05:39:56.710Z,9.90
2023-04-19T05:40:56.702Z,9.20
2023-04-19T05:41:56.682Z,7.90
2023-04-19T05:42:56.684Z,7.60
2023-04-19T05:43:56.687Z,8.00
2023-04-19T05:44:56.645Z,10.00
2023-04-19T05:45:56.629Z,9.40
2023-04-19T05:46:56.639Z,7.40
2023-04-19T05:47:56.612Z,9.70
2023-04-19T05:48:56.571Z,10.30
2023-04-19T05:49:56.598Z,10.50
2023-04-19T05:50:56.568Z,9.00
2023-04-19T05:51:56.564Z,10.10
2023-04-19T05:52:56.558Z,8.10
2023-04-19T05:53:57.450Z,8.70
2023-04-19T05:54:56.573Z,10.90
2023-04-19T05:55:56.525Z,9.80
2023-04-19T05:56:56.524Z,9.30
2023-04-19T05:57:56.520Z,8.40
2023-04-19T05:58:56.541Z,9.70
2023-04-19T05:59:56.535Z,9.20
2023-04-19T06:00:56.467Z,8.00
2023-04-19T06:01:56.575Z,9.20
2023-04-19T06:02:56.540Z,5.80
2023-04-19T06:03:56.682Z,7.10
2023-04-19T06:04:56.545Z,10.10
2023-04-19T06:05:56.550Z,9.40
2023-04-19T06:06:56.387Z,10.60
2023-04-19T06:08:02.692Z,6.30
2023-04-19T06:08:56.401Z,7.70
2023-04-19T06:09:56.367Z,15.20
2023-04-19T06:11:56.351Z,5.80
2023-04-19T06:12:56.387Z,6.20
2023-04-19T06:13:56.366Z,8.30
2023-04-19T06:14:56.332Z,9.40
2023-04-19T06:15:56.348Z,9.80
2023-04-19T06:16:56.336Z,7.50
2023-04-19T06:17:58.007Z,8.60
2023-04-19T06:18:56.292Z,9.00
2023-04-19T06:19:56.273Z,9.00
2023-04-19T06:20:56.247Z,9.50
2023-04-19T06:21:56.336Z,8.30
2023-04-19T06:22:56.255Z,10.20
2023-04-19T06:23:56.232Z,11.80
2023-04-19T06:24:56.196Z,7.20
2023-04-19T06:25:56.197Z,9.20
2023-04-19T06:26:56.230Z,10.80
2023-04-19T06:27:56.240Z,9.60
2023-04-19T06:28:56.189Z,6.60
2023-04-19T06:29:56.187Z,5.80
2023-04-19T06:30:56.138Z,8.20
2023-04-19T06:31:56.191Z,8.60
2023-04-19T06:32:56.184Z,5.60
2023-04-19T06:33:56.107Z,11.10
2023-04-19T06:34:56.121Z,10.00
2023-04-19T06:35:56.137Z,6.50
2023-04-19T06:36:56.089Z,8.40
2023-04-19T06:37:56.114Z,6.70
2023-04-19T06:38:56.098Z,8.70
2023-04-19T06:39:56.063Z,8.00
2023-04-19T06:40:56.259Z,9.10
2023-04-19T06:41:56.078Z,8.10
2023-04-19T06:42:56.062Z,7.10
2023-04-19T06:43:56.000Z,8.40
2023-04-19T06:44:56.058Z,7.30
2023-04-19T06:45:56.025Z,8.60
2023-04-19T06:46:56.006Z,7.90
2023-04-19T06:47:56.060Z,8.30
2023-04-19T06:48:55.961Z,8.60
2023-04-19T06:49:56.023Z,7.20
2023-04-19T06:50:55.926Z,9.60
2023-04-19T06:51:55.925Z,8.00
2023-04-19T06:52:55.940Z,6.70
2023-04-19T06:53:55.915Z,8.30
2023-04-19T06:54:55.879Z,9.60
2023-04-19T06:55:55.929Z,6.90
2023-04-19T06:56:55.874Z,6.50
2023-04-19T06:57:55.880Z,7.50
2023-04-19T06:58:55.935Z,9.70
2023-04-19T06:59:55.868Z,10.00
2023-04-19T07:00:55.883Z,8.20
2023-04-19T07:01:55.896Z,7.30
2023-04-19T07:02:55.856Z,7.10
2023-04-19T07:03:57.497Z,8.00
2023-04-19T07:04:55.829Z,11.00
2023-04-19T07:05:55.834Z,8.00
2023-04-19T07:06:55.786Z,7.20
2023-04-19T07:07:55.765Z,7.10
2023-04-19T07:08:55.826Z,9.10
2023-04-19T07:09:55.745Z,5.50
2023-04-19T07:10:55.845Z,7.50
2023-04-19T07:11:55.733Z,6.70
2023-04-19T07:12:55.750Z,10.50
2023-04-19T07:13:55.700Z,10.00
2023-04-19T07:14:55.699Z,8.10
2023-04-19T07:15:55.709Z,5.80
2023-04-19T07:16:55.673Z,7.30
2023-04-19T07:17:55.720Z,7.10
2023-04-19T07:18:55.723Z,8.70
2023-04-19T07:19:55.651Z,5.50
2023-04-19T07:20:55.639Z,7.80
2023-04-19T07:21:55.601Z,8.30
2023-04-19T07:22:55.593Z,7.00
2023-04-19T07:23:55.638Z,9.00
2023-04-19T07:24:55.592Z,7.00
2023-04-19T07:25:55.611Z,8.70
2023-04-19T07:26:55.560Z,5.40
2023-04-19T07:27:55.645Z,8.20
2023-04-19T07:28:55.529Z,6.10
2023-04-19T07:29:55.513Z,9.90
2023-04-19T07:30:55.506Z,6.50
2023-04-19T07:31:55.620Z,5.70
2023-04-19T07:32:55.546Z,7.50
2023-04-19T07:33:55.541Z,7.70
2023-04-19T07:34:55.474Z,6.30
2023-04-19T07:35:55.523Z,5.90
2023-04-19T07:36:55.457Z,8.70
2023-04-19T07:37:55.479Z,6.10
2023-04-19T07:38:55.431Z,7.70
2023-04-19T07:39:55.450Z,7.00
2023-04-19T07:40:55.403Z,8.30
2023-04-19T07:41:55.483Z,6.40
2023-04-19T07:42:55.452Z,6.10
2023-04-19T07:43:55.396Z,7.40
2023-04-19T07:44:55.412Z,6.50
2023-04-19T07:45:55.433Z,6.80
2023-04-19T07:46:55.409Z,5.80
2023-04-19T07:47:55.461Z,5.10
2023-04-19T07:48:55.318Z,8.10
2023-04-19T07:49:55.298Z,10.20
2023-04-19T07:50:55.428Z,6.90
2023-04-19T07:51:55.309Z,5.80
2023-04-19T07:52:55.286Z,7.00
2023-04-19T07:53:55.337Z,5.80
2023-04-19T07:54:55.254Z,7.90
2023-04-19T07:55:55.250Z,6.40
2023-04-19T07:56:55.304Z,8.80
2023-04-19T07:57:55.224Z,9.90
2023-04-19T07:59:06.995Z,6.30
2023-04-19T07:59:55.366Z,8.00
2023-04-19T08:00:55.273Z,6.90
2023-04-19T08:01:55.342Z,6.10
2023-04-19T08:02:55.373Z,9.00
2023-04-19T08:03:55.521Z,11.70
2023-04-19T08:04:55.333Z,8.30
2023-04-19T08:05:55.279Z,8.10
2023-04-19T08:06:55.163Z,5.90
2023-04-19T08:07:55.114Z,4.80
2023-04-19T08:08:55.100Z,7.10
2023-04-19T08:09:55.296Z,9.40
2023-04-19T08:10:55.160Z,9.10
2023-04-19T08:11:55.099Z,6.50
2023-04-19T08:13:04.463Z,11.20
2023-04-19T08:14:06.780Z,8.30
2023-04-19T08:15:04.686Z,7.70
2023-04-19T08:17:55.102Z,7.50
2023-04-19T08:18:55.045Z,7.00
2023-04-19T08:19:55.048Z,6.40
2023-04-19T08:20:55.007Z,9.40
2023-04-19T08:21:55.001Z,8.00
2023-04-19T08:22:54.960Z,6.30
2023-04-19T08:23:54.973Z,9.80
2023-04-19T08:24:55.003Z,5.90
2023-04-19T08:25:54.948Z,4.20
2023-04-19T08:26:54.917Z,5.70
2023-04-19T08:27:54.923Z,6.70
2023-04-19T08:28:54.918Z,6.00
2023-04-19T08:29:54.995Z,7.50
2023-04-19T08:30:54.891Z,5.60
2023-04-19T08:31:54.941Z,10.20
2023-04-19T08:32:56.981Z,12.60
2023-04-19T08:33:54.878Z,15.10
2023-04-19T08:34:54.935Z,12.20
2023-04-19T08:35:54.825Z,10.50
2023-04-19T08:37:03.412Z,6.00
2023-04-19T08:37:54.844Z,5.70
2023-04-19T08:39:04.151Z,11.60
2023-04-19T08:39:54.801Z,7.00
2023-04-19T08:40:54.793Z,8.70
2023-04-19T08:42:02.739Z,4.80
2023-04-19T08:42:54.751Z,4.60
2023-04-19T08:43:54.738Z,6.10
2023-04-19T08:45:17.074Z,8.50
2023-04-19T08:45:54.803Z,14.30
2023-04-19T08:46:54.724Z,5.90
2023-04-19T08:48:00.704Z,7.10
2023-04-19T08:48:54.719Z,8.60
2023-04-19T08:50:08.666Z,11.30
2023-04-19T08:51:04.392Z,10.20
2023-04-19T08:51:54.693Z,5.30
2023-04-19T08:53:00.690Z,5.80
2023-04-19T08:53:54.636Z,4.90
2023-04-19T08:54:54.632Z,8.80
2023-04-19T08:56:10.757Z,8.00
2023-04-19T08:56:54.625Z,10.50
2023-04-19T08:57:54.633Z,6.30
2023-04-19T08:59:04.501Z,10.20
2023-04-19T08:59:54.567Z,8.10
2023-04-19T09:00:54.598Z,6.90
2023-04-19T09:01:54.650Z,8.10
2023-04-19T09:02:54.728Z,14.20
2023-04-19T09:04:02.501Z,10.70
2023-04-19T09:04:54.884Z,5.00
2023-04-19T09:05:54.731Z,5.00
2023-04-19T09:06:54.545Z,6.20
2023-04-19T09:07:54.492Z,10.50
2023-04-19T09:08:54.534Z,10.40
2023-04-19T09:10:02.509Z,6.00
2023-04-19T09:10:54.529Z,7.10
2023-04-19T09:11:54.451Z,5.50
2023-04-19T09:12:54.445Z,8.80
2023-04-19T09:13:54.429Z,11.60
2023-04-19T09:15:01.856Z,5.70
2023-04-19T09:15:54.444Z,8.00
2023-04-19T09:16:54.568Z,7.60
2023-04-19T09:17:54.505Z,5.60
2023-04-19T09:19:02.608Z,4.40
2023-04-19T09:19:54.374Z,5.20
2023-04-19T09:20:54.351Z,5.40
2023-04-19T09:21:55.183Z,6.00
2023-04-19T09:22:54.348Z,5.60
2023-04-19T09:23:54.868Z,6.00
2023-04-19T09:25:32.273Z,6.20
2023-04-19T09:26:19.101Z,6.30
2023-04-19T09:26:54.372Z,7.70
2023-04-19T09:27:54.976Z,7.30
2023-04-19T09:28:54.286Z,4.70
2023-04-19T09:29:54.291Z,8.70
2023-04-19T09:31:03.533Z,6.20
2023-04-19T09:31:54.324Z,6.20
2023-04-19T09:32:54.284Z,5.60
2023-04-19T09:33:54.268Z,7.30
2023-04-19T09:34:54.241Z,9.10
2023-04-19T09:35:54.795Z,10.20
2023-04-19T09:37:04.383Z,6.60
2023-04-19T09:38:04.799Z,5.10
2023-04-19T09:38:54.215Z,10.00
2023-04-19T09:39:54.209Z,4.80
2023-04-19T09:40:54.133Z,6.40
2023-04-19T09:41:54.128Z,4.80
2023-04-19T09:44:13.931Z,6.10
2023-04-19T09:45:27.677Z,6.30
2023-04-19T09:45:54.079Z,5.50
2023-04-19T09:46:54.210Z,6.40
2023-04-19T09:47:54.053Z,9.70
2023-04-19T09:48:54.097Z,9.50
2023-04-19T09:49:54.623Z,5.80
2023-04-19T09:51:00.221Z,7.50
2023-04-19T09:51:54.046Z,6.70
2023-04-19T09:52:54.048Z,7.80
2023-04-19T09:53:54.016Z,9.40
2023-04-19T09:54:54.007Z,5.10
2023-04-19T09:56:01.587Z,6.10
2023-04-19T09:56:56.808Z,4.90
2023-04-19T09:57:54.004Z,4.70
2023-04-19T09:58:58.840Z,5.80
2023-04-19T09:59:53.950Z,8.60
2023-04-19T10:01:02.841Z,8.50
2023-04-19T10:01:54.882Z,8.60
2023-04-19T10:02:54.009Z,10.10
2023-04-19T10:03:54.338Z,6.60
2023-04-19T10:05:11.108Z,8.30
2023-04-19T10:05:53.900Z,11.00
2023-04-19T10:07:24.480Z,7.30
2023-04-19T10:07:56.742Z,8.20
2023-04-19T10:08:53.846Z,6.30
2023-04-19T10:09:56.404Z,3.60
2023-04-19T10:10:53.881Z,5.00
2023-04-19T10:11:58.105Z,5.90
2023-04-19T10:13:53.776Z,5.30
2023-04-19T10:14:53.803Z,7.70
2023-04-19T10:15:59.156Z,8.40
2023-04-19T10:16:53.839Z,6.10
2023-04-19T10:17:53.755Z,8.80
2023-04-19T10:18:53.756Z,8.60
2023-04-19T10:19:53.728Z,5.70
2023-04-19T10:20:53.718Z,10.30
2023-04-19T10:21:53.719Z,9.80
2023-04-19T10:22:53.742Z,7.50
2023-04-19T10:23:53.663Z,6.60
2023-04-19T10:24:53.692Z,6.20
2023-04-19T10:25:53.668Z,9.30
2023-04-19T10:26:53.656Z,6.30
2023-04-19T10:27:53.789Z,6.80
2023-04-19T10:28:53.670Z,8.20
2023-04-19T10:29:53.642Z,9.20
2023-04-19T10:30:53.637Z,5.10
2023-04-19T10:31:53.730Z,5.20
2023-04-19T10:32:53.715Z,5.80
2023-04-19T10:33:53.602Z,6.80
2023-04-19T10:34:53.569Z,6.60
2023-04-19T10:35:53.587Z,9.00
2023-04-19T10:36:53.613Z,7.00
2023-04-19T10:37:53.553Z,4.90
2023-04-19T10:38:53.589Z,7.90
2023-04-19T10:39:53.517Z,5.80
2023-04-19T10:40:53.509Z,8.40
2023-04-19T10:41:53.511Z,7.80
2023-04-19T10:42:53.490Z,4.90
2023-04-19T10:43:53.537Z,4.70
2023-04-19T10:44:53.475Z,6.80
2023-04-19T10:45:53.543Z,11.00
2023-04-19T10:46:53.465Z,16.80
2023-04-19T10:47:53.512Z,5.40
2023-04-19T10:48:53.489Z,6.10
2023-04-19T10:49:53.416Z,9.90
2023-04-19T10:50:53.398Z,5.70
2023-04-19T10:51:53.408Z,6.20
2023-04-19T10:52:53.509Z,9.50
2023-04-19T10:53:53.419Z,8.60
2023-04-19T10:54:53.389Z,7.70
2023-04-19T10:55:53.331Z,6.90
2023-04-19T10:56:53.355Z,6.50
2023-04-19T10:57:53.358Z,9.30
2023-04-19T10:58:53.399Z,9.70
2023-04-19T10:59:53.320Z,9.30
2023-04-19T11:00:53.319Z,5.40
2023-04-19T11:01:53.524Z,7.60
2023-04-19T11:02:53.463Z,5.90
2023-04-19T11:03:53.587Z,6.50
2023-04-19T11:04:53.374Z,7.30
2023-04-19T11:05:53.312Z,5.50
2023-04-19T11:06:53.550Z,7.70
2023-04-19T11:07:53.208Z,10.40
2023-04-19T11:08:53.223Z,6.30
2023-04-19T11:09:53.227Z,4.50
2023-04-19T11:10:53.475Z,7.80
2023-04-19T11:11:53.182Z,5.10
2023-04-19T11:12:53.208Z,8.40
2023-04-19T11:13:53.162Z,9.30
2023-04-19T11:14:53.537Z,7.80
2023-04-19T11:15:53.164Z,8.70
2023-04-19T11:16:53.211Z,7.00
2023-04-19T11:18:08.969Z,6.40
2023-04-19T11:18:53.138Z,9.00
2023-04-19T11:19:53.154Z,5.30
2023-04-19T11:20:53.143Z,10.10
2023-04-19T11:21:53.054Z,8.30
2023-04-19T11:22:53.076Z,6.90
2023-04-19T11:23:53.071Z,6.40
2023-04-19T11:24:53.068Z,9.40
2023-04-19T11:25:53.080Z,6.20
2023-04-19T11:26:55.295Z,8.80
2023-04-19T11:27:53.081Z,7.30
2023-04-19T11:28:52.994Z,10.10
2023-04-19T11:29:53.024Z,6.80
2023-04-19T11:30:52.978Z,6.20
2023-04-19T11:31:52.965Z,6.90
2023-04-19T11:32:53.055Z,10.60
2023-04-19T11:33:52.985Z,12.40
2023-04-19T11:34:52.943Z,8.20
2023-04-19T11:35:52.926Z,6.90
2023-04-19T11:36:52.905Z,14.80
2023-04-19T11:37:52.969Z,10.50
2023-04-19T11:38:52.913Z,6.30
2023-04-19T11:39:52.907Z,8.70
2023-04-19T11:40:52.890Z,6.80
2023-04-19T11:41:52.866Z,6.80
2023-04-19T11:42:52.887Z,6.80
2023-04-19T11:43:52.824Z,7.20
2023-04-19T11:44:52.871Z,6.80
2023-04-19T11:45:52.871Z,8.70
2023-04-19T11:46:52.862Z,5.30
2023-04-19T11:47:52.886Z,8.10
2023-04-19T11:48:52.808Z,8.50
2023-04-19T11:49:52.763Z,6.80
2023-04-19T11:50:52.802Z,6.80
2023-04-19T11:51:52.851Z,5.10
2023-04-19T11:52:52.775Z,5.50
2023-04-19T11:53:52.752Z,6.90
2023-04-19T11:54:52.766Z,9.40
2023-04-19T11:55:52.714Z,7.90
2023-04-19T11:56:52.708Z,6.80
2023-04-19T11:57:52.715Z,7.30
2023-04-19T11:58:52.756Z,9.00
2023-04-19T11:59:52.745Z,5.50
2023-04-19T12:00:52.691Z,7.20
2023-04-19T12:01:52.726Z,7.60
2023-04-19T12:02:52.847Z,6.60
2023-04-19T12:03:52.979Z,9.00
2023-04-19T12:04:52.766Z,6.10
2023-04-19T12:05:52.805Z,6.90
2023-04-19T12:06:52.602Z,6.80
2023-04-19T12:07:52.567Z,5.90
2023-04-19T12:08:52.632Z,8.30
2023-04-19T12:09:52.553Z,8.50
2023-04-19T12:10:52.552Z,8.30
2023-04-19T12:11:52.538Z,7.50
2023-04-19T12:12:52.593Z,9.60
2023-04-19T12:13:52.605Z,5.80
2023-04-19T12:14:52.519Z,8.40
2023-04-19T12:15:52.511Z,9.90
2023-04-19T12:16:52.575Z,8.30
2023-04-19T12:17:57.294Z,7.90
2023-04-19T12:18:52.479Z,9.80
2023-04-19T12:19:52.535Z,5.80
2023-04-19T12:20:52.468Z,5.60
2023-04-19T12:21:52.442Z,7.60
2023-04-19T12:22:52.466Z,8.10
2023-04-19T12:23:52.442Z,5.30
2023-04-19T12:24:52.461Z,6.20
2023-04-19T12:25:52.383Z,10.60
2023-04-19T12:26:54.597Z,6.90
2023-04-19T12:27:52.404Z,5.80
2023-04-19T12:28:52.378Z,7.10
2023-04-19T12:29:52.389Z,5.90
2023-04-19T12:30:52.325Z,7.20
2023-04-19T12:31:52.394Z,7.00
2023-04-19T12:32:52.386Z,7.60
2023-04-19T12:33:52.310Z,6.90
2023-04-19T12:34:52.302Z,6.90
2023-04-19T12:35:52.285Z,7.20
2023-04-19T12:36:52.489Z,8.60
2023-04-19T12:37:52.275Z,7.70
2023-04-19T12:38:52.363Z,8.50
2023-04-19T12:39:53.684Z,8.40
2023-04-19T12:40:52.294Z,8.80
2023-04-19T12:41:52.218Z,5.90
2023-04-19T12:42:52.254Z,10.10
2023-04-19T12:43:52.193Z,6.40
2023-04-19T12:44:52.230Z,5.80
2023-04-19T12:45:52.241Z,8.40
2023-04-19T12:46:52.234Z,6.50
2023-04-19T12:47:52.617Z,5.30
2023-04-19T12:48:52.159Z,7.70
2023-04-19T12:49:52.260Z,5.70
2023-04-19T12:50:52.127Z,6.50
2023-04-19T12:51:52.102Z,7.70
2023-04-19T12:52:52.121Z,6.80
2023-04-19T12:53:52.114Z,6.50
2023-04-19T12:54:52.089Z,7.50
2023-04-19T12:55:52.049Z,5.30
2023-04-19T12:56:52.093Z,6.90
2023-04-19T12:57:52.049Z,8.00
2023-04-19T12:58:52.176Z,7.30
2023-04-19T12:59:52.050Z,5.30
2023-04-19T13:00:52.023Z,5.60
2023-04-19T13:01:52.053Z,9.40
2023-04-19T13:02:52.176Z,6.40
2023-04-19T13:03:52.166Z,5.30
2023-04-19T13:04:52.067Z,10.60
2023-04-19T13:05:51.997Z,7.90
2023-04-19T13:06:51.961Z,6.20
2023-04-19T13:07:52.173Z,8.10
2023-04-19T13:08:53.025Z,8.60
2023-04-19T13:09:51.923Z,12.00
2023-04-19T13:10:51.934Z,7.50
2023-04-19T13:11:51.927Z,7.10